sensor_id;sensor_type;location;lat;lon;timestamp;pressure;altitude;pressure_sealevel;temperature;humidity
67397;BME280;57728;50.448;18.824;2023-09-07T00:00:59;98607.34;;;18.42;55.57
67397;BME280;57728;50.448;18.824;2023-09-07T00:03:01;98680.97;;;18.89;55.18
67397;BME280;57728;50.448;18.824;2023-09-07T00:05:04;98731.84;;;19.14;55.53
67397;BME280;57728;50.448;18.824;2023-09-07T00:07:06;98662.34;;;18.69;55.58
67397;BME280;57728;50.448;18.824;2023-09-07T00:09:08;98730.44;;;19.06;55.37
67397;BME280;57728;50.448;18.824;2023-09-07T00:11:10;98659.28;;;18.55;55.32
67397;BME280;57728;50.448;18.824;2023-09-07T00:13:11;98732.03;;;18.97;55.48
67397;BME280;57728;50.448;18.824;2023-09-07T00:15:12;98624.66;;;18.27;55.86
67397;BME280;57728;50.448;18.824;2023-09-07T00:17:14;98728.41;;;18.91;55.86
67397;BME280;57728;50.448;18.824;2023-09-07T00:19:15;98730.06;;;18.87;55.87
67397;BME280;57728;50.448;18.824;2023-09-07T00:21:16;98621.88;;;18.21;55.70
67397;BME280;57728;50.448;18.824;2023-09-07T00:23:18;98723.38;;;18.78;56.02
67397;BME280;57728;50.448;18.824;2023-09-07T00:25:21;98670.50;;;18.43;56.27
67397;BME280;57728;50.448;18.824;2023-09-07T00:27:22;98661.94;;;18.39;56.14
67397;BME280;57728;50.448;18.824;2023-09-07T00:29:24;98672.44;;;18.43;55.94
67397;BME280;57728;50.448;18.824;2023-09-07T00:31:25;98720.84;;;18.71;56.05
67397;BME280;57728;50.448;18.824;2023-09-07T00:33:26;98682.38;;;18.49;56.04
67397;BME280;57728;50.448;18.824;2023-09-07T00:35:28;98673.78;;;18.40;56.28
67397;BME280;57728;50.448;18.824;2023-09-07T00:37:29;98670.75;;;18.42;56.37
67397;BME280;57728;50.448;18.824;2023-09-07T00:39:30;98676.28;;;18.42;56.15
67397;BME280;57728;50.448;18.824;2023-09-07T00:41:32;98682.09;;;18.45;56.12
67397;BME280;57728;50.448;18.824;2023-09-07T00:43:34;98677.13;;;18.47;56.20
67397;BME280;57728;50.448;18.824;2023-09-07T00:45:35;98731.94;;;18.81;56.14
67397;BME280;57728;50.448;18.824;2023-09-07T00:47:37;98708.97;;;18.65;56.40
67397;BME280;57728;50.448;18.824;2023-09-07T00:49:39;98686.53;;;18.51;56.42
67397;BME280;57728;50.448;18.824;2023-09-07T00:51:40;98686.81;;;18.50;56.44
67397;BME280;57728;50.448;18.824;2023-09-07T00:53:42;98644.19;;;18.25;56.24
67397;BME280;57728;50.448;18.824;2023-09-07T00:55:45;98729.19;;;18.86;56.21
67397;BME280;57728;50.448;18.824;2023-09-07T00:57:47;98679.41;;;18.55;56.10
67397;BME280;57728;50.448;18.824;2023-09-07T00:59:49;98646.75;;;18.37;55.95
67397;BME280;57728;50.448;18.824;2023-09-07T01:01:50;98695.19;;;18.70;56.24
67397;BME280;57728;50.448;18.824;2023-09-07T01:03:53;98636.50;;;18.27;55.71
67397;BME280;57728;50.448;18.824;2023-09-07T01:06:03;98732.22;;;18.85;56.24
67397;BME280;57728;50.448;18.824;2023-09-07T01:08:23;98650.34;;;18.32;55.77
67397;BME280;57728;50.448;18.824;2023-09-07T01:10:26;98596.06;;;17.95;56.17
67397;BME280;57728;50.448;18.824;2023-09-07T01:12:28;98643.84;;;18.11;56.24
67397;BME280;57728;50.448;18.824;2023-09-07T01:14:30;98681.50;;;18.38;56.19
67397;BME280;57728;50.448;18.824;2023-09-07T01:16:32;98699.19;;;18.47;56.11
67397;BME280;57728;50.448;18.824;2023-09-07T01:18:37;98684.50;;;18.36;56.10
67397;BME280;57728;50.448;18.824;2023-09-07T01:20:44;98647.44;;;18.12;56.22
67397;BME280;57728;50.448;18.824;2023-09-07T01:22:47;98741.19;;;18.65;56.42
67397;BME280;57728;50.448;18.824;2023-09-07T01:24:50;98732.38;;;18.63;56.51
67397;BME280;57728;50.448;18.824;2023-09-07T01:26:53;98582.28;;;17.58;56.42
67397;BME280;57728;50.448;18.824;2023-09-07T01:28:54;98686.06;;;18.22;56.70
67397;BME280;57728;50.448;18.824;2023-09-07T01:30:57;98714.88;;;18.42;56.60
67397;BME280;57728;50.448;18.824;2023-09-07T01:32:59;98611.03;;;17.72;56.57
67397;BME280;57728;50.448;18.824;2023-09-07T01:35:01;98579.75;;;17.51;56.60
67397;BME280;57728;50.448;18.824;2023-09-07T01:37:08;98729.47;;;18.42;57.02
67397;BME280;57728;50.448;18.824;2023-09-07T01:39:10;98711.19;;;18.26;56.65
67397;BME280;57728;50.448;18.824;2023-09-07T01:41:12;98733.03;;;18.37;57.01
67397;BME280;57728;50.448;18.824;2023-09-07T01:43:15;98620.34;;;17.66;57.07
67397;BME280;57728;50.448;18.824;2023-09-07T01:45:16;98656.03;;;17.88;56.87
67397;BME280;57728;50.448;18.824;2023-09-07T01:47:17;98740.16;;;18.33;56.75
67397;BME280;57728;50.448;18.824;2023-09-07T01:49:20;98724.16;;;18.30;56.76
67397;BME280;57728;50.448;18.824;2023-09-07T01:51:21;98542.28;;;17.12;56.78
67397;BME280;57728;50.448;18.824;2023-09-07T01:53:22;98739.84;;;18.25;57.01
67397;BME280;57728;50.448;18.824;2023-09-07T01:55:27;98632.13;;;17.61;56.93
67397;BME280;57728;50.448;18.824;2023-09-07T01:57:29;98732.06;;;18.16;57.27
67397;BME280;57728;50.448;18.824;2023-09-07T01:59:32;98704.09;;;18.02;57.49
67397;BME280;57728;50.448;18.824;2023-09-07T02:01:34;98699.94;;;17.95;57.53
67397;BME280;57728;50.448;18.824;2023-09-07T02:03:37;98671.09;;;17.75;57.67
67397;BME280;57728;50.448;18.824;2023-09-07T02:05:39;98622.59;;;17.42;57.44
67397;BME280;57728;50.448;18.824;2023-09-07T02:07:41;98726.47;;;18.06;57.64
67397;BME280;57728;50.448;18.824;2023-09-07T02:09:42;98610.16;;;17.34;57.96
67397;BME280;57728;50.448;18.824;2023-09-07T02:11:43;98691.81;;;17.83;57.68
67397;BME280;57728;50.448;18.824;2023-09-07T02:13:47;98688.28;;;17.87;58.15
67397;BME280;57728;50.448;18.824;2023-09-07T02:15:49;98662.81;;;17.75;58.07
67397;BME280;57728;50.448;18.824;2023-09-07T02:17:50;98712.09;;;17.99;57.95
67397;BME280;57728;50.448;18.824;2023-09-07T02:19:56;98712.63;;;18.01;58.35
67397;BME280;57728;50.448;18.824;2023-09-07T02:21:58;98694.25;;;17.79;58.34
67397;BME280;57728;50.448;18.824;2023-09-07T02:23:59;98609.56;;;17.32;58.47
67397;BME280;57728;50.448;18.824;2023-09-07T02:26:01;98613.66;;;17.24;58.54
67397;BME280;57728;50.448;18.824;2023-09-07T02:28:03;98686.72;;;17.69;58.54
67397;BME280;57728;50.448;18.824;2023-09-07T02:30:09;98655.16;;;17.50;58.96
67397;BME280;57728;50.448;18.824;2023-09-07T02:32:11;98626.59;;;17.24;58.75
67397;BME280;57728;50.448;18.824;2023-09-07T02:34:12;98657.75;;;17.34;58.92
67397;BME280;57728;50.448;18.824;2023-09-07T02:36:13;98612.59;;;17.03;59.32
67397;BME280;57728;50.448;18.824;2023-09-07T02:38:15;98584.59;;;16.84;59.29
67397;BME280;57728;50.448;18.824;2023-09-07T02:40:18;98704.19;;;17.53;59.61
67397;BME280;57728;50.448;18.824;2023-09-07T02:42:19;98651.03;;;17.20;59.69
67397;BME280;57728;50.448;18.824;2023-09-07T02:44:21;98559.34;;;16.65;59.59
67397;BME280;57728;50.448;18.824;2023-09-07T02:46:22;98705.03;;;17.53;59.62
67397;BME280;57728;50.448;18.824;2023-09-07T02:48:23;98512.81;;;16.31;60.05
67397;BME280;57728;50.448;18.824;2023-09-07T02:50:25;98663.50;;;17.28;60.09
67397;BME280;57728;50.448;18.824;2023-09-07T02:52:27;98704.25;;;17.58;60.20
67397;BME280;57728;50.448;18.824;2023-09-07T02:54:28;98573.22;;;16.75;60.04
67397;BME280;57728;50.448;18.824;2023-09-07T02:56:31;98715.53;;;17.57;59.88
67397;BME280;57728;50.448;18.824;2023-09-07T02:58:32;98517.78;;;16.34;60.03
67397;BME280;57728;50.448;18.824;2023-09-07T03:00:34;98673.13;;;17.30;60.18
67397;BME280;57728;50.448;18.824;2023-09-07T03:02:36;98709.69;;;17.53;60.18
67397;BME280;57728;50.448;18.824;2023-09-07T03:04:38;98560.94;;;16.56;59.96
67397;BME280;57728;50.448;18.824;2023-09-07T03:06:39;98708.56;;;17.49;60.08
67397;BME280;57728;50.448;18.824;2023-09-07T03:08:41;98601.56;;;16.76;59.95
67397;BME280;57728;50.448;18.824;2023-09-07T03:10:46;98603.47;;;16.75;60.21
67397;BME280;57728;50.448;18.824;2023-09-07T03:12:47;98710.38;;;17.38;60.28
67397;BME280;57728;50.448;18.824;2023-09-07T03:14:49;98543.63;;;16.33;60.59
67397;BME280;57728;50.448;18.824;2023-09-07T03:16:51;98581.16;;;16.49;60.38
67397;BME280;57728;50.448;18.824;2023-09-07T03:18:53;98700.66;;;17.30;60.83
67397;BME280;57728;50.448;18.824;2023-09-07T03:20:57;98699.84;;;17.30;61.06
67397;BME280;57728;50.448;18.824;2023-09-07T03:22:59;98692.91;;;17.27;60.54
67397;BME280;57728;50.448;18.824;2023-09-07T03:25:01;98644.16;;;16.95;60.53
67397;BME280;57728;50.448;18.824;2023-09-07T03:27:03;98702.03;;;17.28;60.98
67397;BME280;57728;50.448;18.824;2023-09-07T03:29:06;98514.72;;;16.08;60.99
67397;BME280;57728;50.448;18.824;2023-09-07T03:31:07;98580.59;;;16.47;61.03
67397;BME280;57728;50.448;18.824;2023-09-07T03:33:09;98658.41;;;16.92;61.17
67397;BME280;57728;50.448;18.824;2023-09-07T03:35:11;98520.72;;;16.05;61.05
67397;BME280;57728;50.448;18.824;2023-09-07T03:37:12;98712.44;;;17.26;61.09
67397;BME280;57728;50.448;18.824;2023-09-07T03:39:14;98713.53;;;17.25;60.87
67397;BME280;57728;50.448;18.824;2023-09-07T03:41:15;98646.75;;;16.85;60.72
67397;BME280;57728;50.448;18.824;2023-09-07T03:43:17;98715.13;;;17.21;60.91
67397;BME280;57728;50.448;18.824;2023-09-07T03:45:19;98719.81;;;17.20;61.03
67397;BME280;57728;50.448;18.824;2023-09-07T03:47:20;98723.38;;;17.21;61.03
67397;BME280;57728;50.448;18.824;2023-09-07T03:49:21;98710.72;;;17.19;61.24
67397;BME280;57728;50.448;18.824;2023-09-07T03:51:23;98659.66;;;16.84;61.08
67397;BME280;57728;50.448;18.824;2023-09-07T03:53:25;98690.66;;;16.97;61.25
67397;BME280;57728;50.448;18.824;2023-09-07T03:55:26;98716.94;;;17.10;61.20
67397;BME280;57728;50.448;18.824;2023-09-07T03:57:29;98726.28;;;17.09;61.52
67397;BME280;57728;50.448;18.824;2023-09-07T03:59:30;98662.88;;;16.76;61.19
67397;BME280;57728;50.448;18.824;2023-09-07T04:01:31;98703.81;;;16.95;61.39
67397;BME280;57728;50.448;18.824;2023-09-07T04:03:33;98695.28;;;16.91;61.82
67397;BME280;57728;50.448;18.824;2023-09-07T04:05:37;98659.22;;;16.71;61.59
67397;BME280;57728;50.448;18.824;2023-09-07T04:07:40;98730.44;;;17.11;61.60
67397;BME280;57728;50.448;18.824;2023-09-07T04:09:44;98706.00;;;16.93;61.54
67397;BME280;57728;50.448;18.824;2023-09-07T04:11:45;98729.84;;;17.09;61.74
67397;BME280;57728;50.448;18.824;2023-09-07T04:13:46;98733.44;;;17.10;61.60
67397;BME280;57728;50.448;18.824;2023-09-07T04:15:49;98695.44;;;16.84;61.48
67397;BME280;57728;50.448;18.824;2023-09-07T04:17:51;98733.19;;;17.11;61.58
67397;BME280;57728;50.448;18.824;2023-09-07T04:19:52;98714.91;;;17.00;61.62
67397;BME280;57728;50.448;18.824;2023-09-07T04:21:54;98671.06;;;16.71;61.84
67397;BME280;57728;50.448;18.824;2023-09-07T04:23:55;98682.22;;;16.87;61.67
67397;BME280;57728;50.448;18.824;2023-09-07T04:26:10;98729.41;;;17.17;61.29
67397;BME280;57728;50.448;18.824;2023-09-07T04:28:13;98643.75;;;16.64;61.76
67397;BME280;57728;50.448;18.824;2023-09-07T04:30:14;98732.75;;;17.19;61.40
67397;BME280;57728;50.448;18.824;2023-09-07T04:32:15;98733.56;;;17.20;61.68
67397;BME280;57728;50.448;18.824;2023-09-07T04:34:18;98729.16;;;17.19;61.64
67397;BME280;57728;50.448;18.824;2023-09-07T04:36:19;98668.19;;;16.83;61.50
67397;BME280;57728;50.448;18.824;2023-09-07T04:38:21;98584.38;;;16.19;61.35
67397;BME280;57728;50.448;18.824;2023-09-07T04:40:24;98720.63;;;17.21;61.86
67397;BME280;57728;50.448;18.824;2023-09-07T04:42:26;98726.78;;;17.28;61.47
67397;BME280;57728;50.448;18.824;2023-09-07T04:44:27;98584.56;;;16.35;61.48
67397;BME280;57728;50.448;18.824;2023-09-07T04:46:29;98680.81;;;17.01;61.32
67397;BME280;57728;50.448;18.824;2023-09-07T04:48:31;98642.03;;;16.80;61.36
67397;BME280;57728;50.448;18.824;2023-09-07T04:50:32;98742.00;;;17.35;61.38
67397;BME280;57728;50.448;18.824;2023-09-07T04:52:35;98699.72;;;17.19;61.21
67397;BME280;57728;50.448;18.824;2023-09-07T04:54:37;98649.84;;;16.89;61.61
67397;BME280;57728;50.448;18.824;2023-09-07T04:56:38;98644.84;;;16.85;61.14
67397;BME280;57728;50.448;18.824;2023-09-07T04:58:39;98724.44;;;17.42;61.28
67397;BME280;57728;50.448;18.824;2023-09-07T05:00:41;98541.94;;;16.32;61.15
67397;BME280;57728;50.448;18.824;2023-09-07T05:02:42;98728.41;;;17.51;60.97
67397;BME280;57728;50.448;18.824;2023-09-07T05:04:45;98734.25;;;17.55;61.39
67397;BME280;57728;50.448;18.824;2023-09-07T05:06:46;98615.41;;;16.86;61.03
67397;BME280;57728;50.448;18.824;2023-09-07T05:08:47;98707.69;;;17.43;61.06
67397;BME280;57728;50.448;18.824;2023-09-07T05:10:49;98679.50;;;17.31;60.95
67397;BME280;57728;50.448;18.824;2023-09-07T05:12:55;98734.88;;;17.67;60.74
67397;BME280;57728;50.448;18.824;2023-09-07T05:14:57;98735.22;;;17.70;61.05
67397;BME280;57728;50.448;18.824;2023-09-07T05:16:59;98573.22;;;16.75;60.62
67397;BME280;57728;50.448;18.824;2023-09-07T05:19:00;98736.38;;;17.80;60.70
67397;BME280;57728;50.448;18.824;2023-09-07T05:21:10;98741.69;;;17.86;60.64
67397;BME280;57728;50.448;18.824;2023-09-07T05:23:12;98681.97;;;17.60;60.27
67397;BME280;57728;50.448;18.824;2023-09-07T05:25:16;98741.00;;;17.96;60.73
67397;BME280;57728;50.448;18.824;2023-09-07T05:27:17;98747.44;;;18.07;60.44
67397;BME280;57728;50.448;18.824;2023-09-07T05:29:20;98696.47;;;17.82;60.29
67397;BME280;57728;50.448;18.824;2023-09-07T05:31:22;98693.78;;;17.87;60.10
67397;BME280;57728;50.448;18.824;2023-09-07T05:33:23;98653.91;;;17.63;59.92
67397;BME280;57728;50.448;18.824;2023-09-07T05:35:26;98755.56;;;18.29;59.97
67397;BME280;57728;50.448;18.824;2023-09-07T05:37:30;98635.41;;;17.58;59.73
67397;BME280;57728;50.448;18.824;2023-09-07T05:39:31;98706.38;;;18.11;59.49
67397;BME280;57728;50.448;18.824;2023-09-07T05:41:33;98762.06;;;18.50;59.52
67397;BME280;57728;50.448;18.824;2023-09-07T05:43:34;98762.13;;;18.55;59.17
67397;BME280;57728;50.448;18.824;2023-09-07T05:45:38;98763.53;;;18.63;59.36
67397;BME280;57728;50.448;18.824;2023-09-07T05:47:42;98718.72;;;18.41;59.12
67397;BME280;57728;50.448;18.824;2023-09-07T05:49:44;98618.22;;;17.78;59.11
67397;BME280;57728;50.448;18.824;2023-09-07T05:51:45;98646.03;;;18.09;59.29
67397;BME280;57728;50.448;18.824;2023-09-07T05:53:47;98754.81;;;18.82;59.15
67397;BME280;57728;50.448;18.824;2023-09-07T05:55:48;98656.59;;;18.23;58.92
67397;BME280;57728;50.448;18.824;2023-09-07T05:57:49;98761.06;;;19.04;58.82
67397;BME280;57728;50.448;18.824;2023-09-07T05:59:51;98767.44;;;19.10;58.95
67397;BME280;57728;50.448;18.824;2023-09-07T06:01:53;98754.16;;;19.07;58.26
67397;BME280;57728;50.448;18.824;2023-09-07T06:03:54;98772.16;;;19.20;58.60
67397;BME280;57728;50.448;18.824;2023-09-07T06:05:56;98595.91;;;18.12;58.42
67397;BME280;57728;50.448;18.824;2023-09-07T06:07:57;98743.69;;;19.09;58.41
67397;BME280;57728;50.448;18.824;2023-09-07T06:09:59;98762.50;;;19.22;58.23
67397;BME280;57728;50.448;18.824;2023-09-07T06:12:02;98618.97;;;18.44;57.65
67397;BME280;57728;50.448;18.824;2023-09-07T06:14:04;98782.47;;;19.45;57.82
67397;BME280;57728;50.448;18.824;2023-09-07T06:16:06;98785.25;;;19.50;57.95
67397;BME280;57728;50.448;18.824;2023-09-07T06:18:08;98784.16;;;19.51;57.78
67397;BME280;57728;50.448;18.824;2023-09-07T06:20:09;98671.84;;;18.88;57.77
67397;BME280;57728;50.448;18.824;2023-09-07T06:22:10;98752.66;;;19.47;57.56
67397;BME280;57728;50.448;18.824;2023-09-07T06:24:13;98766.22;;;19.64;57.11
67397;BME280;57728;50.448;18.824;2023-09-07T06:26:15;98792.56;;;19.87;57.22
67397;BME280;57728;50.448;18.824;2023-09-07T06:28:18;98779.28;;;19.84;56.83
67397;BME280;57728;50.448;18.824;2023-09-07T06:30:20;98744.41;;;19.73;56.45
67397;BME280;57728;50.448;18.824;2023-09-07T06:32:22;98795.06;;;20.15;56.58
67397;BME280;57728;50.448;18.824;2023-09-07T06:34:23;98790.13;;;20.22;56.17
67397;BME280;57728;50.448;18.824;2023-09-07T06:36:25;98681.69;;;19.58;55.95
67397;BME280;57728;50.448;18.824;2023-09-07T06:38:27;98779.31;;;20.20;55.93
67397;BME280;57728;50.448;18.824;2023-09-07T06:40:28;98702.47;;;19.81;55.94
67397;BME280;57728;50.448;18.824;2023-09-07T06:42:33;98752.22;;;20.22;55.88
67397;BME280;57728;50.448;18.824;2023-09-07T06:44:40;98776.28;;;20.48;55.54
67397;BME280;57728;50.448;18.824;2023-09-07T06:46:41;98618.47;;;19.51;55.24
67397;BME280;57728;50.448;18.824;2023-09-07T06:48:43;98780.69;;;20.59;55.10
67397;BME280;57728;50.448;18.824;2023-09-07T06:50:44;98809.16;;;20.85;54.93
67397;BME280;57728;50.448;18.824;2023-09-07T06:52:45;98807.50;;;20.94;54.86
67397;BME280;57728;50.448;18.824;2023-09-07T06:54:51;98807.47;;;21.05;54.95
67397;BME280;57728;50.448;18.824;2023-09-07T06:56:54;98803.03;;;21.14;54.51
67397;BME280;57728;50.448;18.824;2023-09-07T06:58:55;98779.50;;;21.11;54.73
67397;BME280;57728;50.448;18.824;2023-09-07T07:00:58;98801.84;;;21.36;54.18
67397;BME280;57728;50.448;18.824;2023-09-07T07:03:00;98794.03;;;21.43;54.51
67397;BME280;57728;50.448;18.824;2023-09-07T07:05:02;98778.00;;;21.40;54.18
67397;BME280;57728;50.448;18.824;2023-09-07T07:07:04;98806.44;;;21.66;53.45
67397;BME280;57728;50.448;18.824;2023-09-07T07:09:06;98805.81;;;21.74;53.64
67397;BME280;57728;50.448;18.824;2023-09-07T07:11:07;98804.13;;;21.84;53.17
67397;BME280;57728;50.448;18.824;2023-09-07T07:13:10;98680.97;;;21.05;52.83
67397;BME280;57728;50.448;18.824;2023-09-07T07:15:11;98817.59;;;22.01;52.92
67397;BME280;57728;50.448;18.824;2023-09-07T07:17:13;98792.13;;;21.98;52.66
67397;BME280;57728;50.448;18.824;2023-09-07T07:19:15;98812.47;;;22.18;52.19
67397;BME280;57728;50.448;18.824;2023-09-07T07:21:16;98767.47;;;21.92;52.11
67397;BME280;57728;50.448;18.824;2023-09-07T07:23:17;98763.53;;;21.98;51.81
67397;BME280;57728;50.448;18.824;2023-09-07T07:25:19;98797.41;;;22.35;51.79
67397;BME280;57728;50.448;18.824;2023-09-07T07:27:20;98812.34;;;22.44;51.79
67397;BME280;57728;50.448;18.824;2023-09-07T07:29:22;98821.97;;;22.52;51.73
67397;BME280;57728;50.448;18.824;2023-09-07T07:31:24;98753.13;;;22.19;51.71
67397;BME280;57728;50.448;18.824;2023-09-07T07:33:25;98714.94;;;22.11;51.54
67397;BME280;57728;50.448;18.824;2023-09-07T07:35:27;98724.00;;;22.22;51.59
67397;BME280;57728;50.448;18.824;2023-09-07T07:37:29;98672.91;;;21.98;51.53
67397;BME280;57728;50.448;18.824;2023-09-07T07:39:30;98796.44;;;22.79;51.25
67397;BME280;57728;50.448;18.824;2023-09-07T07:41:32;98796.66;;;22.88;51.07
67397;BME280;57728;50.448;18.824;2023-09-07T07:43:34;98794.06;;;22.96;50.70
67397;BME280;57728;50.448;18.824;2023-09-07T07:45:35;98775.75;;;22.95;50.72
67397;BME280;57728;50.448;18.824;2023-09-07T07:47:42;98802.72;;;23.19;50.59
67397;BME280;57728;50.448;18.824;2023-09-07T07:49:44;98684.91;;;22.53;50.64
67397;BME280;57728;50.448;18.824;2023-09-07T07:51:45;98682.63;;;22.55;50.37
67397;BME280;57728;50.448;18.824;2023-09-07T07:53:46;98799.69;;;23.40;49.86
67397;BME280;57728;50.448;18.824;2023-09-07T07:55:48;98803.69;;;23.52;50.33
67397;BME280;57728;50.448;18.824;2023-09-07T07:57:53;98826.44;;;23.79;50.70
67397;BME280;57728;50.448;18.824;2023-09-07T07:59:55;98737.00;;;23.33;50.34
67397;BME280;57728;50.448;18.824;2023-09-07T08:01:58;98809.63;;;23.89;50.76
67397;BME280;57728;50.448;18.824;2023-09-07T08:03:59;98826.63;;;24.07;50.04
67397;BME280;57728;50.448;18.824;2023-09-07T08:06:00;98839.47;;;24.21;49.85
67397;BME280;57728;50.448;18.824;2023-09-07T08:08:03;98828.78;;;24.29;50.02
67397;BME280;57728;50.448;18.824;2023-09-07T08:10:05;98810.53;;;24.23;49.94
67397;BME280;57728;50.448;18.824;2023-09-07T08:12:07;98804.59;;;24.29;49.84
67397;BME280;57728;50.448;18.824;2023-09-07T08:14:10;98841.78;;;24.52;49.00
67397;BME280;57728;50.448;18.824;2023-09-07T08:16:11;98834.44;;;24.62;49.66
67397;BME280;57728;50.448;18.824;2023-09-07T08:18:13;98829.59;;;24.67;48.34
67397;BME280;57728;50.448;18.824;2023-09-07T08:20:15;98712.25;;;23.94;47.87
67397;BME280;57728;50.448;18.824;2023-09-07T08:22:17;98780.63;;;24.47;47.71
67397;BME280;57728;50.448;18.824;2023-09-07T08:24:18;98822.50;;;24.75;47.20
67397;BME280;57728;50.448;18.824;2023-09-07T08:26:21;98810.19;;;24.62;46.89
67397;BME280;57728;50.448;18.824;2023-09-07T08:28:22;98810.63;;;24.69;47.18
67397;BME280;57728;50.448;18.824;2023-09-07T08:30:23;98711.91;;;24.15;47.03
67397;BME280;57728;50.448;18.824;2023-09-07T08:32:27;98824.69;;;24.92;46.21
67397;BME280;57728;50.448;18.824;2023-09-07T08:34:28;98833.28;;;24.96;46.11
67397;BME280;57728;50.448;18.824;2023-09-07T08:36:30;98824.06;;;24.95;45.58
67397;BME280;57728;50.448;18.824;2023-09-07T08:38:35;98678.31;;;24.11;45.43
67397;BME280;57728;50.448;18.824;2023-09-07T08:40:38;98777.84;;;24.80;44.91
67397;BME280;57728;50.448;18.824;2023-09-07T08:42:41;98799.34;;;25.08;45.25
67397;BME280;57728;50.448;18.824;2023-09-07T08:44:46;98807.81;;;25.30;45.56
67397;BME280;57728;50.448;18.824;2023-09-07T08:46:52;98834.44;;;25.78;45.10
67397;BME280;57728;50.448;18.824;2023-09-07T08:48:54;98725.63;;;25.69;44.89
67397;BME280;57728;50.448;18.824;2023-09-07T08:51:02;98828.91;;;27.05;44.10
67397;BME280;57728;50.448;18.824;2023-09-07T08:53:04;98816.50;;;27.78;43.11
67397;BME280;57728;50.448;18.824;2023-09-07T08:55:05;98827.59;;;28.53;42.15
67397;BME280;57728;50.448;18.824;2023-09-07T08:57:08;98823.69;;;29.28;40.65
67397;BME280;57728;50.448;18.824;2023-09-07T08:59:12;98675.97;;;29.11;39.46
67397;BME280;57728;50.448;18.824;2023-09-07T09:01:13;98779.53;;;30.39;37.69
67397;BME280;57728;50.448;18.824;2023-09-07T09:03:15;98794.22;;;30.78;35.90
67397;BME280;57728;50.448;18.824;2023-09-07T09:05:19;98758.63;;;30.82;35.63
67397;BME280;57728;50.448;18.824;2023-09-07T09:07:20;98711.09;;;30.90;35.21
67397;BME280;57728;50.448;18.824;2023-09-07T09:09:23;98778.13;;;31.74;35.24
67397;BME280;57728;50.448;18.824;2023-09-07T09:11:26;98734.94;;;31.82;34.88
67397;BME280;57728;50.448;18.824;2023-09-07T09:13:32;98731.78;;;32.25;33.80
67397;BME280;57728;50.448;18.824;2023-09-07T09:15:34;98803.88;;;32.98;33.20
67397;BME280;57728;50.448;18.824;2023-09-07T09:17:35;98798.81;;;33.20;32.95
67397;BME280;57728;50.448;18.824;2023-09-07T09:19:36;98785.50;;;33.52;31.93
67397;BME280;57728;50.448;18.824;2023-09-07T09:21:38;98793.59;;;33.70;30.72
67397;BME280;57728;50.448;18.824;2023-09-07T09:23:40;98777.56;;;33.58;30.70
67397;BME280;57728;50.448;18.824;2023-09-07T09:25:42;98827.13;;;34.07;30.32
67397;BME280;57728;50.448;18.824;2023-09-07T09:27:44;98789.81;;;33.98;29.62
67397;BME280;57728;50.448;18.824;2023-09-07T09:29:45;98789.28;;;34.11;30.30
67397;BME280;57728;50.448;18.824;2023-09-07T09:31:47;98817.97;;;34.49;29.86
67397;BME280;57728;50.448;18.824;2023-09-07T09:33:49;98787.47;;;34.39;28.80
67397;BME280;57728;50.448;18.824;2023-09-07T09:35:54;98723.50;;;33.91;28.81
67397;BME280;57728;50.448;18.824;2023-09-07T09:37:55;98828.22;;;34.57;28.48
67397;BME280;57728;50.448;18.824;2023-09-07T09:40:06;98828.94;;;34.74;29.21
67397;BME280;57728;50.448;18.824;2023-09-07T09:42:12;98782.75;;;34.86;29.05
67397;BME280;57728;50.448;18.824;2023-09-07T09:44:16;98829.56;;;35.49;28.71
67397;BME280;57728;50.448;18.824;2023-09-07T09:46:18;98784.78;;;35.58;28.40
67397;BME280;57728;50.448;18.824;2023-09-07T09:48:21;98816.03;;;35.89;27.54
67397;BME280;57728;50.448;18.824;2023-09-07T09:50:23;98723.53;;;35.23;27.15
67397;BME280;57728;50.448;18.824;2023-09-07T09:52:26;98829.91;;;35.97;26.73
67397;BME280;57728;50.448;18.824;2023-09-07T09:54:28;98787.41;;;35.71;27.10
67397;BME280;57728;50.448;18.824;2023-09-07T09:56:33;98700.53;;;35.25;26.39
67397;BME280;57728;50.448;18.824;2023-09-07T09:58:36;98825.63;;;36.11;26.78
67397;BME280;57728;50.448;18.824;2023-09-07T10:00:41;98831.38;;;36.45;27.18
67397;BME280;57728;50.448;18.824;2023-09-07T10:02:49;98830.13;;;36.76;26.74
67397;BME280;57728;50.448;18.824;2023-09-07T10:04:56;98830.31;;;36.91;25.93
67397;BME280;57728;50.448;18.824;2023-09-07T10:06:59;98757.16;;;36.36;25.79
67397;BME280;57728;50.448;18.824;2023-09-07T10:09:07;98804.38;;;36.92;26.16
67397;BME280;57728;50.448;18.824;2023-09-07T10:11:12;98786.19;;;36.97;26.01
67397;BME280;57728;50.448;18.824;2023-09-07T10:13:15;98823.72;;;37.24;25.69
67397;BME280;57728;50.448;18.824;2023-09-07T10:15:24;98827.59;;;37.43;25.62
67397;BME280;57728;50.448;18.824;2023-09-07T10:17:27;98834.09;;;37.47;25.23
67397;BME280;57728;50.448;18.824;2023-09-07T10:19:28;98806.09;;;37.42;25.25
67397;BME280;57728;50.448;18.824;2023-09-07T10:21:39;98782.28;;;37.61;25.62
67397;BME280;57728;50.448;18.824;2023-09-07T10:23:43;98763.66;;;37.67;24.83
67397;BME280;57728;50.448;18.824;2023-09-07T10:25:53;98788.94;;;37.83;24.11
67397;BME280;57728;50.448;18.824;2023-09-07T10:27:54;98784.66;;;37.51;24.75
67397;BME280;57728;50.448;18.824;2023-09-07T10:29:56;98812.63;;;37.49;25.00
67397;BME280;57728;50.448;18.824;2023-09-07T10:32:05;98820.78;;;37.55;24.35
67397;BME280;57728;50.448;18.824;2023-09-07T10:34:09;98774.34;;;37.32;25.01
67397;BME280;57728;50.448;18.824;2023-09-07T10:36:24;98751.22;;;37.30;25.13
67397;BME280;57728;50.448;18.824;2023-09-07T10:38:36;98818.09;;;37.73;24.59
67397;BME280;57728;50.448;18.824;2023-09-07T10:40:38;98802.78;;;37.92;25.12